Time;durP1;ratioP1;P1;durP2;ratioP2;P2;SDS_P1;SDS_P2;PMS_P1;PMS_P2;Temp;Humidity;BMP_temperature;BMP_pressure;BME280_temperature;BME280_humidity;BME280_pressure;Samples;Min_cycle;Max_cycle;Signal;HPM_P1;HPM_P2
2022/09/20 00:00:38;;;;;;;6.43;3.10;;;13.00;99.90;;;;;;4933984;29;20031;-87
2022/09/20 00:03:04;;;;;;;7.32;3.10;;;13.00;99.90;;;;;;4934962;29;20035;-87
2022/09/20 00:05:34;;;;;;;9.02;2.97;;;13.00;99.90;;;;;;4933955;29;20039;-88
2022/09/20 00:08:00;;;;;;;6.03;2.90;;;13.00;99.90;;;;;;4935269;29;20016;-87
2022/09/20 00:10:26;;;;;;;8.05;3.65;;;;;;;;;;4923241;29;20438;-87
2022/09/20 00:12:52;;;;;;;7.40;3.30;;;;;;;;;;4934434;29;20492;-87
2022/09/20 00:15:18;;;;;;;6.57;3.25;;;12.80;99.90;;;;;;4925171;29;20036;-87
2022/09/20 00:17:44;;;;;;;6.68;3.85;;;12.80;99.90;;;;;;4916334;29;20030;-87
2022/09/20 00:20:10;;;;;;;5.22;3.35;;;12.70;99.90;;;;;;4916153;29;20029;-88
2022/09/20 00:22:36;;;;;;;6.97;3.45;;;;;;;;;;4915959;29;20028;-88
2022/09/20 00:25:01;;;;;;;6.78;3.40;;;12.60;99.90;;;;;;4914437;29;20035;-87
2022/09/20 00:27:27;;;;;;;7.00;3.40;;;12.60;99.90;;;;;;4916651;29;20028;-87
2022/09/20 00:29:53;;;;;;;3.40;3.10;;;12.50;99.90;;;;;;4915732;29;20060;-88
2022/09/20 00:32:18;;;;;;;4.80;3.10;;;12.40;99.90;;;;;;4916503;29;20047;-87
2022/09/20 00:37:43;;;;;;;8.85;3.50;;;;;;;;;;4893458;29;20044;-87
2022/09/20 00:40:13;;;;;;;5.53;3.20;;;12.10;99.90;;;;;;4916172;29;20052;-87
2022/09/20 00:42:39;;;;;;;6.03;3.85;;;;;;;;;;4914375;29;20489;-87
2022/09/20 00:45:24;;;;;;;7.47;3.70;;;12.10;99.90;;;;;;4921492;29;20039;-88
2022/09/20 00:48:02;;;;;;;8.27;4.13;;;12.00;99.90;;;;;;4933183;29;20028;-87
2022/09/20 00:50:41;;;;;;;5.13;3.13;;;11.90;99.90;;;;;;4933905;29;20050;-87
2022/09/20 00:53:46;;;;;;;8.25;3.50;;;11.80;99.90;;;;;;4931627;29;20051;-87
2022/09/20 00:56:17;;;;;;;6.80;3.50;;;11.80;99.90;;;;;;4920850;29;20098;-88
2022/09/20 00:58:51;;;;;;;6.60;4.20;;;11.80;99.90;;;;;;4933698;29;20067;-87
2022/09/20 01:01:18;;;;;;;5.00;3.90;;;;;;;;;;4934254;29;20035;-87
2022/09/20 01:03:44;;;;;;;7.45;3.40;;;;;;;;;;4932892;29;20023;-86
2022/09/20 01:06:14;;;;;;;6.22;3.65;;;11.70;99.90;;;;;;4931074;29;20114;-87
2022/09/20 01:08:44;;;;;;;6.90;4.18;;;11.60;99.90;;;;;;4934107;29;20058;-87
2022/09/20 01:11:11;;;;;;;7.63;3.70;;;;;;;;;;4934039;29;20028;-86
2022/09/20 01:13:37;;;;;;;5.25;4.00;;;;;;;;;;4931911;29;20031;-88
2022/09/20 01:16:05;;;;;;;9.25;3.85;;;11.50;99.90;;;;;;4919437;29;20103;-86
2022/09/20 01:18:32;;;;;;;4.47;3.30;;;11.40;99.90;;;;;;4924074;29;20083;-86
2022/09/20 01:21:00;;;;;;;5.30;3.20;;;11.40;99.90;;;;;;4934011;29;20028;-87
2022/09/20 01:23:36;;;;;;;3.25;2.92;;;11.30;99.90;;;;;;4933743;29;20047;-86
2022/09/20 01:26:02;;;;;;;6.28;3.22;;;;;;;;;;4932823;29;20035;-88
2022/09/20 01:28:29;;;;;;;3.95;3.10;;;11.30;99.90;;;;;;4932460;29;20119;-87
2022/09/20 01:31:11;;;;;;;6.70;3.53;;;11.20;99.90;;;;;;4931996;29;20035;-87
2022/09/20 01:33:58;;;;;;;4.40;3.45;;;11.10;99.90;;;;;;4933578;29;20035;-87
2022/09/20 01:36:41;;;;;;;5.30;3.60;;;11.10;99.90;;;;;;4933502;29;20051;-88
2022/09/20 01:39:27;;;;;;;5.15;3.42;;;11.20;99.90;;;;;;4932161;29;20043;-87
2022/09/20 01:41:57;;;;;;;5.57;3.25;;;10.80;99.90;;;;;;4933172;29;20047;-87
2022/09/20 01:44:41;;;;;;;5.05;3.30;;;10.80;99.90;;;;;;4931725;29;20032;-87
2022/09/20 01:47:07;;;;;;;4.60;3.42;;;;;;;;;;4931578;29;20126;-88
2022/09/20 01:50:10;;;;;;;4.15;3.17;;;10.70;99.90;;;;;;4919069;29;20032;-87
2022/09/20 01:52:57;;;;;;;6.03;3.58;;;10.80;99.90;;;;;;4912856;29;20044;-87
2022/09/20 01:55:42;;;;;;;8.48;3.50;;;10.80;99.90;;;;;;4914361;29;20578;-87
2022/09/20 01:58:20;;;;;;;5.40;3.65;;;10.90;99.90;;;;;;4914019;29;20404;-87
2022/09/20 02:01:03;;;;;;;4.00;3.07;;;10.90;99.90;;;;;;4917143;29;20688;-86
2022/09/20 02:03:53;;;;;;;5.35;3.55;;;10.80;99.90;;;;;;4935492;29;20307;-87
2022/09/20 02:06:28;;;;;;;6.40;3.47;;;10.90;99.90;;;;;;4937628;29;20058;-87
2022/09/20 02:09:10;;;;;;;5.63;3.58;;;10.90;99.90;;;;;;4936825;29;20027;-86
2022/09/20 02:12:14;;;;;;;5.80;3.08;;;11.10;99.90;;;;;;4936218;29;20031;-87
2022/09/20 02:14:45;;;;;;;5.80;3.42;;;10.60;99.90;;;;;;4927958;29;20032;-86
2022/09/20 02:17:17;;;;;;;5.30;3.10;;;;;;;;;;4913598;29;20492;-86
2022/09/20 02:19:54;;;;;;;3.90;3.13;;;;;;;;;;4931513;29;20031;-87
2022/09/20 02:22:23;;;;;;;8.82;3.30;;;;;;;;;;4932717;29;20385;-86
2022/09/20 02:24:55;;;;;;;3.90;3.20;;;;;;;;;;4930833;29;20063;-86
2022/09/20 02:27:41;;;;;;;5.05;3.03;;;13.50;99.90;;;;;;4931386;29;20023;-87
2022/09/20 02:30:09;;;;;;;13.50;3.58;;;10.80;99.90;;;;;;4901589;29;20036;-87
2022/09/20 02:32:57;;;;;;;4.70;3.33;;;10.70;99.90;;;;;;4929038;29;20031;-86
2022/09/20 02:35:23;;;;;;;4.00;3.57;;;;;;;;;;4927664;29;20835;-86
2022/09/20 02:38:05;;;;;;;7.05;3.22;;;13.20;99.90;;;;;;4921338;29;20047;-87
2022/09/20 02:40:57;;;;;;;4.70;3.50;;;10.50;99.90;;;;;;4924791;29;20042;-86
2022/09/20 02:43:52;;;;;;;6.22;3.60;;;10.50;99.90;;;;;;4922522;29;20075;-87
2022/09/20 02:46:38;;;;;;;4.53;3.78;;;10.50;99.90;;;;;;4925660;29;20076;-87
2022/09/20 02:49:27;;;;;;;6.15;3.83;;;10.40;99.90;;;;;;4927310;29;20038;-87
2022/09/20 02:51:59;;;;;;;4.63;3.95;;;10.20;99.90;;;;;;4926475;29;20035;-87
2022/09/20 02:54:41;;;;;;;4.18;3.70;;;10.00;99.90;;;;;;4928775;29;20114;-87
2022/09/20 02:57:35;;;;;;;7.05;3.90;;;10.10;99.90;;;;;;4923726;29;20063;-88
2022/09/20 03:00:11;;;;;;;5.43;3.85;;;10.10;99.90;;;;;;4915416;29;20071;-87
2022/09/20 03:02:50;;;;;;;10.50;4.10;;;10.20;99.90;;;;;;4933265;29;20071;-86
2022/09/20 03:05:22;;;;;;;6.95;3.78;;;10.10;99.90;;;;;;4932037;29;20028;-86
2022/09/20 03:08:24;;;;;;;8.48;4.18;;;10.10;99.90;;;;;;4914827;29;20118;-86
2022/09/20 03:11:00;;;;;;;10.05;4.13;;;12.70;99.90;;;;;;4906421;29;20415;-87
2022/09/20 03:14:04;;;;;;;10.43;4.20;;;11.40;99.90;;;;;;4920456;29;20094;-85
2022/09/20 03:16:58;;;;;;;8.38;4.90;;;9.80;99.90;;;;;;4930309;29;20540;-86
2022/09/20 03:19:55;;;;;;;7.57;4.85;;;9.40;99.90;;;;;;4930385;29;20090;-86
2022/09/20 03:22:46;;;;;;;11.48;4.80;;;9.60;99.90;;;;;;4893503;29;20457;-86
2022/09/20 03:25:17;;;;;;;7.00;4.80;;;7.40;99.90;;;;;;4924188;29;20024;-87
2022/09/20 03:27:52;;;;;;;6.82;4.22;;;9.80;99.90;;;;;;4922254;29;20201;-86
2022/09/20 03:30:55;;;;;;;5.32;4.07;;;9.80;99.90;;;;;;4922870;29;20040;-86
2022/09/20 03:33:24;;;;;;;8.30;4.03;;;13.50;99.90;;;;;;4925170;29;20515;-86
2022/09/20 03:36:28;;;;;;;6.70;3.90;;;12.20;99.90;;;;;;4916793;29;20158;-86
2022/09/20 03:39:01;;;;;;;6.30;4.07;;;9.80;99.90;;;;;;4903091;29;20036;-88
2022/09/20 03:41:27;;;;;;;9.13;4.13;;;;;;;;;;4929294;29;20031;-86
2022/09/20 03:43:56;;;;;;;5.25;4.25;;;10.00;99.90;;;;;;4926085;29;20538;-87
2022/09/20 03:46:45;;;;;;;5.95;4.03;;;10.00;99.90;;;;;;4930709;29;20039;-87
2022/09/20 03:49:33;;;;;;;5.65;4.55;;;10.00;99.90;;;;;;4922763;29;20079;-88
2022/09/20 03:52:18;;;;;;;6.57;4.13;;;9.70;99.90;;;;;;4929316;29;20395;-89
2022/09/20 03:55:28;;;;;;;8.07;3.85;;;9.60;99.90;;;;;;4928133;29;20066;-88
2022/09/20 03:57:54;;;;;;;9.90;4.43;;;;;;;;;;4922311;29;20062;-89
2022/09/20 04:00:25;;;;;;;6.63;4.15;;;9.20;99.90;;;;;;4928447;29;20383;-88
2022/09/20 04:03:16;;;;;;;8.50;4.38;;;9.20;99.90;;;;;;4928862;29;20032;-88
2022/09/20 04:05:51;;;;;;;6.80;4.43;;;12.00;99.90;;;;;;4923610;29;20024;-89
2022/09/20 04:08:17;;;;;;;6.38;4.90;;;;;;;;;;4921480;29;20024;-89
2022/09/20 04:11:01;;;;;;;6.05;4.70;;;9.20;99.90;;;;;;4911513;29;20029;-87
2022/09/20 04:13:39;;;;;;;6.47;3.95;;;9.20;99.90;;;;;;4928392;29;20136;-87
2022/09/20 04:16:25;;;;;;;6.75;4.57;;;6.90;99.90;;;;;;4923081;29;20094;-86
2022/09/20 04:18:57;;;;;;;7.70;4.18;;;9.50;99.90;;;;;;4922390;29;20080;-86
2022/09/20 04:21:35;;;;;;;6.50;4.50;;;9.40;99.90;;;;;;4926653;29;20098;-86
2022/09/20 04:24:26;;;;;;;8.27;4.57;;;8.30;99.90;;;;;;4929164;29;20123;-86
2022/09/20 04:27:13;;;;;;;5.63;4.00;;;9.50;99.90;;;;;;4928541;29;20091;-85
2022/09/20 04:29:51;;;;;;;8.43;4.93;;;7.10;99.90;;;;;;4924826;29;20107;-85
2022/09/20 04:32:23;;;;;;;;;;;9.50;99.90;;;;;;4944225;29;20040;-85
2022/09/20 04:38:05;;;;;;;6.35;4.40;;;9.50;99.90;;;;;;4926832;29;20104;-84
2022/09/20 04:40:33;;;;;;;6.28;4.70;;;9.40;99.90;;;;;;4932102;29;20480;-87
2022/09/20 04:43:02;;;;;;;10.60;4.30;;;9.40;99.90;;;;;;4936136;29;20040;-86
2022/09/20 04:45:43;;;;;;;7.78;4.60;;;9.40;99.90;;;;;;4938130;29;20031;-85
2022/09/20 04:48:37;;;;;;;7.30;4.63;;;9.50;99.90;;;;;;4936732;29;20032;-85
2022/09/20 04:51:33;;;;;;;9.27;4.88;;;12.20;99.90;;;;;;4934577;29;20028;-86
2022/09/20 04:54:29;;;;;;;6.70;4.75;;;6.10;99.90;;;;;;4922950;29;20039;-86
2022/09/20 04:57:12;;;;;;;8.45;4.10;;;9.00;99.90;;;;;;4914145;29;20068;-86
2022/09/20 05:00:03;;;;;;;6.95;4.50;;;9.10;99.90;;;;;;4915215;29;20036;-85
2022/09/20 05:02:47;;;;;;;8.85;4.20;;;9.10;99.90;;;;;;4930532;29;20031;-86
2022/09/20 05:05:38;;;;;;;7.88;4.93;;;9.20;99.90;;;;;;4932981;29;20459;-86
2022/09/20 05:08:15;;;;;;;6.95;4.70;;;8.20;99.90;;;;;;4931778;29;20040;-85
2022/09/20 05:11:11;;;;;;;8.03;4.80;;;9.10;99.90;;;;;;4931905;29;20028;-85
2022/09/20 05:14:11;;;;;;;6.13;4.97;;;11.00;99.90;;;;;;4925345;29;20296;-85
2022/09/20 05:16:49;;;;;;;7.53;4.90;;;6.70;99.90;;;;;;4931653;29;20031;-87
2022/09/20 05:19:51;;;;;;;8.18;5.53;;;8.30;99.90;;;;;;4933054;29;20102;-87
2022/09/20 05:22:44;;;;;;;8.32;5.72;;;8.30;99.90;;;;;;4932663;29;20063;-91
2022/09/20 05:25:45;;;;;;;7.25;4.97;;;8.70;99.90;;;;;;4933836;29;20106;-89
2022/09/20 05:28:33;;;;;;;6.90;5.40;;;8.80;99.90;;;;;;4934228;29;20052;-89
2022/09/20 05:31:23;;;;;;;14.07;5.53;;;9.00;99.90;;;;;;4933870;29;20031;-89
2022/09/20 05:34:41;;;;;;;11.00;5.63;;;8.90;99.90;;;;;;4932950;29;20319;-90
2022/09/20 05:37:31;;;;;;;11.52;5.50;;;9.00;99.90;;;;;;4860339;29;20289;-91
2022/09/20 05:40:04;;;;;;;11.35;6.07;;;8.90;99.90;;;;;;4875248;29;20124;-90
2022/09/20 05:42:59;;;;;;;17.27;5.47;;;11.80;99.90;;;;;;4919309;29;20040;-90
2022/09/20 05:45:33;;;;;;;12.13;6.07;;;9.00;99.90;;;;;;4934204;29;20028;-90
2022/09/20 05:48:11;;;;;;;8.35;5.45;;;9.00;99.90;;;;;;4933081;29;20391;-90
2022/09/20 05:50:51;;;;;;;8.75;5.50;;;11.60;99.90;;;;;;4933025;29;20023;-89
2022/09/20 05:53:41;;;;;;;10.15;6.18;;;9.00;99.90;;;;;;4933611;29;20118;-90
2022/09/20 05:56:48;;;;;;;8.77;5.45;;;12.90;99.90;;;;;;4931736;29;20040;-89
2022/09/20 05:59:23;;;;;;;11.77;6.30;;;8.90;99.90;;;;;;4933214;29;20126;-90
2022/09/20 06:01:55;;;;;;;6.90;5.38;;;9.00;99.90;;;;;;4931594;29;20376;-90
2022/09/20 06:04:30;;;;;;;6.50;5.22;;;9.00;99.90;;;;;;4932730;29;20027;-89
2022/09/20 06:07:06;;;;;;;11.85;6.13;;;8.90;99.90;;;;;;4933666;29;20039;-88
2022/09/20 06:09:50;;;;;;;10.05;5.60;;;6.40;99.90;;;;;;4932451;29;20032;-90
2022/09/20 06:13:02;;;;;;;12.10;6.03;;;8.90;99.90;;;;;;4934148;29;20127;-89
2022/09/20 06:15:34;;;;;;;13.48;6.22;;;9.00;99.90;;;;;;4932086;29;20019;-91
2022/09/20 06:18:27;;;;;;;13.63;6.70;;;7.10;99.90;;;;;;4931789;29;20058;-88
2022/09/20 06:21:14;;;;;;;9.38;6.47;;;6.20;99.90;;;;;;4930169;29;20027;-89
2022/09/20 06:23:40;;;;;;;13.50;6.88;;;;;;;;;;4931073;29;20035;-91
2022/09/20 06:26:25;;;;;;;11.07;6.97;;;10.20;99.90;;;;;;4932214;29;20023;-90
2022/09/20 06:28:58;;;;;;;12.02;6.88;;;7.60;99.90;;;;;;4933468;29;20070;-91
2022/09/20 06:31:25;;;;;;;10.55;6.25;;;9.00;99.90;;;;;;4932133;29;20039;-90
2022/09/20 06:34:07;;;;;;;10.82;6.53;;;9.00;99.90;;;;;;4933154;29;20114;-91
2022/09/20 06:42:28;;;;;;;15.87;7.27;;;12.40;99.90;;;;;;4912507;29;20065;-90
2022/09/20 06:44:54;;;;;;;9.48;6.65;;;;;;;;;;4933231;29;20475;-91
2022/09/20 06:47:22;;;;;;;16.98;7.20;;;;;;;;;;4932069;29;20099;-87
2022/09/20 06:49:48;;;;;;;8.73;6.40;;;;;;;;;;4933226;29;20075;-89
2022/09/20 06:52:16;;;;;;;10.93;7.10;;;9.40;99.90;;;;;;4931450;29;20180;-90
2022/09/20 06:54:54;;;;;;;13.27;6.83;;;9.50;99.90;;;;;;4933071;29;20468;-92
2022/09/20 06:57:30;;;;;;;10.93;7.38;;;9.50;99.90;;;;;;4932365;29;20400;-91
2022/09/20 06:59:56;;;;;;;11.52;7.20;;;;;;;;;;4931754;29;20396;-92
2022/09/20 07:02:23;;;;;;;9.70;6.22;;;9.60;99.90;;;;;;4929993;29;20115;-88
2022/09/20 07:04:54;;;;;;;12.20;6.53;;;;;;;;;;4933269;29;20432;-90
2022/09/20 07:07:20;;;;;;;9.10;6.50;;;;;;;;;;4933561;29;20020;-89
2022/09/20 07:09:47;;;;;;;9.70;6.13;;;10.90;99.90;;;;;;4932191;29;20447;-91
2022/09/20 07:12:13;;;;;;;9.73;6.18;;;;;;;;;;4932767;29;20027;-91
2022/09/20 07:14:39;;;;;;;12.20;6.70;;;;;;;;;;4922121;29;20036;-91
2022/09/20 07:17:05;;;;;;;9.02;6.05;;;;;;;;;;4928343;29;20032;-90
2022/09/20 07:19:32;;;;;;;10.30;6.43;;;;;;;;;;4919844;29;20038;-91
2022/09/20 07:21:58;;;;;;;9.70;6.00;;;;;;;;;;4934776;29;20024;-87
2022/09/20 07:24:24;;;;;;;9.43;5.90;;;;;;;;;;4946907;29;20027;-87
2022/09/20 07:27:02;;;;;;;10.20;4.97;;;11.00;99.90;;;;;;4945051;29;20028;-86
2022/09/20 07:29:28;;;;;;;8.95;5.53;;;11.10;99.90;;;;;;4942374;29;20042;-89
2022/09/20 07:31:56;;;;;;;5.88;4.57;;;11.30;99.90;;;;;;4933500;29;20106;-89
2022/09/20 07:34:22;;;;;;;7.53;4.50;;;9.10;99.90;;;;;;4931872;29;20036;-87
2022/09/20 07:36:50;;;;;;;7.78;3.90;;;11.80;99.90;;;;;;4931131;29;20299;-90
2022/09/20 07:39:16;;;;;;;6.35;3.60;;;12.00;99.90;;;;;;4931733;29;20055;-88
2022/09/20 07:41:47;;;;;;;8.30;3.50;;;;;;;;;;4916551;29;20223;-89
2022/09/20 07:44:20;;;;;;;4.05;2.88;;;;;;;;;;4928198;29;20698;-89
2022/09/20 07:46:49;;;;;;;8.40;3.50;;;12.50;99.90;;;;;;4914048;29;20025;-89
2022/09/20 07:49:15;;;;;;;12.93;3.40;;;;;;;;;;4913482;29;20025;-89
2022/09/20 07:51:41;;;;;;;9.07;3.45;;;;;;;;;;4928029;29;20028;-91
2022/09/20 07:54:07;;;;;;;7.07;2.90;;;;;;;;;;4927718;29;20556;-91
2022/09/20 07:56:34;;;;;;;7.43;2.50;;;;;;;;;;4927891;29;20035;-90
2022/09/20 07:59:00;;;;;;;6.45;2.20;;;;;;;;;;4932239;29;20085;-89
2022/09/20 08:01:26;;;;;;;8.57;2.20;;;;;;;;;;4932548;29;20028;-90
2022/09/20 08:03:53;;;;;;;3.88;2.10;;;;;;;;;;4935248;29;20048;-89
2022/09/20 08:06:20;;;;;;;2.20;1.63;;;;;;;;;;4935882;29;20055;-89
2022/09/20 08:08:46;;;;;;;8.32;1.98;;;13.50;99.90;;;;;;4934661;29;20035;-89
2022/09/20 08:11:18;;;;;;;3.10;1.95;;;17.40;99.90;;;;;;4935882;29;20035;-89
2022/09/20 08:13:48;;;;;;;8.13;2.00;;;13.90;99.90;;;;;;4934842;29;20325;-89
2022/09/20 08:16:14;;;;;;;6.97;1.83;;;;;;;;;;4935696;29;20028;-89
2022/09/20 08:18:56;;;;;;;4.63;1.80;;;14.10;99.90;;;;;;4934693;29;20043;-90
2022/09/20 08:21:23;;;;;;;2.25;1.55;;;14.30;99.90;;;;;;4935316;29;20036;-91
2022/09/20 08:23:49;;;;;;;4.03;1.90;;;14.20;99.90;;;;;;4935555;29;20035;-89
2022/09/20 08:26:20;;;;;;;4.10;1.60;;;14.50;99.90;;;;;;4935685;29;20410;-91
2022/09/20 08:28:51;;;;;;;4.85;1.50;;;14.60;99.90;;;;;;4934332;29;20038;-91
2022/09/20 08:31:19;;;;;;;6.82;1.70;;;14.60;99.90;;;;;;4934827;29;20054;-90
2022/09/20 08:33:46;;;;;;;2.70;1.55;;;14.60;99.90;;;;;;4934022;29;20074;-89
2022/09/20 08:36:20;;;;;;;5.22;1.98;;;14.60;99.90;;;;;;4933847;29;20035;-90
2022/09/20 08:38:47;;;;;;;3.13;2.13;;;;;;;;;;4935320;29;20036;-90
2022/09/20 08:41:18;;;;;;;8.32;2.30;;;14.80;99.90;;;;;;4934073;29;20024;-89
2022/09/20 08:43:59;;;;;;;5.20;1.52;;;14.90;99.90;;;;;;4932223;29;20147;-90
2022/09/20 08:46:33;;;;;;;2.38;1.40;;;14.90;99.90;;;;;;4935779;29;20023;-91
2022/09/20 08:48:59;;;;;;;5.85;1.70;;;;;;;;;;4934975;29;20436;-92
2022/09/20 08:51:30;;;;;;;3.95;1.80;;;14.90;99.90;;;;;;4933526;29;20051;-88
2022/09/20 08:53:57;;;;;;;4.07;1.50;;;14.90;99.90;;;;;;4934552;29;20543;-87
2022/09/20 08:56:28;;;;;;;4.18;1.63;;;15.00;99.90;;;;;;4934618;29;20051;-92
2022/09/20 08:58:56;;;;;;;3.72;1.60;;;;;;;;;;4935919;29;20024;-90
2022/09/20 09:01:25;;;;;;;4.50;1.50;;;15.50;99.90;;;;;;4934498;29;20023;-90
2022/09/20 09:03:55;;;;;;;6.57;1.50;;;15.60;99.90;;;;;;4935243;29;20079;-89
2022/09/20 09:06:23;;;;;;;2.28;1.40;;;15.60;99.90;;;;;;4930223;29;20095;-89
2022/09/20 09:08:52;;;;;;;4.25;1.80;;;15.60;99.90;;;;;;4931455;29;20039;-92
2022/09/20 09:11:22;;;;;;;2.50;1.40;;;15.70;99.90;;;;;;4933749;29;20087;-90
2022/09/20 09:14:03;;;;;;;3.53;1.60;;;15.90;99.90;;;;;;4933978;29;20302;-90
2022/09/20 09:16:32;;;;;;;5.32;1.50;;;15.90;99.90;;;;;;4935369;29;20016;-91
2022/09/20 09:19:25;;;;;;;2.75;1.50;;;15.80;99.90;;;;;;4935567;29;20016;-87
2022/09/20 09:21:59;;;;;;;2.92;1.40;;;15.80;99.90;;;;;;4914867;29;20036;-90
2022/09/20 09:24:25;;;;;;;2.83;1.63;;;15.80;99.90;;;;;;4917984;29;20063;-88
2022/09/20 09:27:05;;;;;;;4.82;1.60;;;15.90;99.90;;;;;;4915763;29;20366;-91
2022/09/20 09:29:31;;;;;;;4.30;1.60;;;16.00;99.90;;;;;;4916490;29;20488;-91
2022/09/20 09:32:18;;;;;;;6.03;1.70;;;16.10;99.90;;;;;;4916115;29;20062;-91
2022/09/20 09:34:44;;;;;;;2.13;1.55;;;;;;;;;;4914461;29;20036;-92
2022/09/20 09:37:29;;;;;;;4.20;2.15;;;16.20;99.90;;;;;;4915451;29;20024;-91
2022/09/20 09:40:15;;;;;;;6.13;1.63;;;16.20;99.90;;;;;;4931204;29;20035;-90
2022/09/20 09:42:49;;;;;;;2.10;1.42;;;16.40;99.90;;;;;;4934987;29;20023;-92
2022/09/20 09:45:33;;;;;;;4.35;1.60;;;16.50;99.90;;;;;;4932527;29;20032;-93
2022/09/20 09:48:00;;;;;;;1.92;1.50;;;16.40;99.90;;;;;;4932808;29;20042;-91
2022/09/20 09:50:30;;;;;;;1.70;1.48;;;16.30;99.90;;;;;;4933375;29;20035;-93
2022/09/20 09:53:09;;;;;;;4.00;2.30;;;16.40;99.90;;;;;;4934099;29;20040;-90
2022/09/20 09:56:20;;;;;;;17.38;8.60;;;16.40;99.90;;;;;;4932687;29;20079;-92
2022/09/20 09:59:09;;;;;;;24.42;10.32;;;16.50;99.90;;;;;;4929961;29;20437;-89
2022/09/20 10:01:50;;;;;;;3.63;1.70;;;16.80;99.90;;;;;;4929147;29;20099;-91
2022/09/20 10:04:27;;;;;;;2.45;1.40;;;16.80;99.90;;;;;;4949559;29;20091;-89
2022/09/20 10:06:57;;;;;;;1.80;1.40;;;16.80;99.90;;;;;;4953233;29;20020;-89
2022/09/20 10:09:36;;;;;;;1.88;1.17;;;16.90;99.90;;;;;;4954516;29;20016;-93
2022/09/20 10:12:26;;;;;;;3.08;1.20;;;19.20;99.90;;;;;;4938054;29;20507;-90
2022/09/20 10:15:13;;;;;;;3.70;1.48;;;17.00;99.90;;;;;;4936044;29;20023;-93
2022/09/20 10:18:03;;;;;;;2.93;1.60;;;17.00;99.90;;;;;;4933668;29;20480;-91
2022/09/20 10:20:56;;;;;;;2.05;1.35;;;17.00;99.90;;;;;;4934915;29;20571;-91
2022/09/20 10:24:06;;;;;;;1.33;1.23;;;17.20;99.90;;;;;;4894816;29;20206;-91
2022/09/20 10:27:00;;;;;;;2.17;1.30;;;17.60;99.90;;;;;;4931720;29;20044;-88
2022/09/20 10:29:45;;;;;;;2.38;1.50;;;16.60;99.90;;;;;;4932646;29;20027;-93
2022/09/20 10:32:58;;;;;;;3.13;1.30;;;17.50;99.90;;;;;;4933568;29;20019;-92
2022/09/20 10:35:29;;;;;;;2.97;1.35;;;17.70;99.90;;;;;;4904413;29;20139;-93
2022/09/20 10:38:12;;;;;;;6.03;1.40;;;17.70;99.90;;;;;;4931406;29;20024;-90
2022/09/20 10:43:52;;;;;;;1.77;1.20;;;17.80;99.90;;;;;;4904037;29;20031;-92
2022/09/20 10:46:30;;;;;;;2.50;1.35;;;17.60;99.90;;;;;;4932329;29;20047;-91
2022/09/20 10:49:34;;;;;;;1.98;1.23;;;17.40;99.90;;;;;;4931818;29;20114;-94
2022/09/20 10:52:23;;;;;;;1.77;1.10;;;17.50;99.90;;;;;;4933107;29;20495;-90
2022/09/20 10:55:25;;;;;;;2.17;1.30;;;17.30;99.90;;;;;;4929715;29;20523;-91
2022/09/20 10:58:12;;;;;;;1.88;1.30;;;17.30;99.90;;;;;;4932363;29;20024;-93
2022/09/20 11:00:57;;;;;;;1.70;1.40;;;17.10;99.90;;;;;;4913872;29;20024;-91
2022/09/20 11:04:01;;;;;;;3.10;1.58;;;19.50;99.90;;;;;;4914092;29;20024;-90
2022/09/20 11:06:42;;;;;;;1.98;1.20;;;17.30;99.90;;;;;;4855952;29;20045;-89
2022/09/20 11:09:13;;;;;;;4.82;1.23;;;17.30;99.90;;;;;;4920974;29;20036;-91
2022/09/20 11:11:44;;;;;;;2.05;1.52;;;17.20;99.90;;;;;;4923127;29;20086;-91
2022/09/20 11:14:18;;;;;;;3.60;1.48;;;17.30;99.90;;;;;;4931573;29;20091;-93
2022/09/20 11:17:11;;;;;;;6.05;1.30;;;17.30;99.90;;;;;;4931721;29;20118;-91
2022/09/20 11:19:49;;;;;;;4.53;1.55;;;17.20;99.90;;;;;;4932701;29;20028;-91
2022/09/20 11:22:24;;;;;;;4.78;1.45;;;17.10;99.90;;;;;;4932730;29;20027;-91
2022/09/20 11:25:01;;;;;;;2.95;1.20;;;17.10;99.90;;;;;;4933164;29;20016;-90
2022/09/20 11:27:40;;;;;;;4.20;1.60;;;17.10;99.90;;;;;;4932484;29;20031;-91
2022/09/20 11:30:21;;;;;;;2.13;1.20;;;17.20;99.90;;;;;;4931364;29;20308;-91
2022/09/20 11:33:09;;;;;;;6.63;1.58;;;17.10;99.90;;;;;;4932493;29;20503;-91
2022/09/20 11:35:44;;;;;;;4.25;1.65;;;17.20;99.90;;;;;;4932089;29;20067;-87
2022/09/20 11:38:33;;;;;;;2.90;1.48;;;17.20;99.90;;;;;;4935330;29;20036;-88
2022/09/20 11:41:18;;;;;;;1.60;1.50;;;17.10;99.90;;;;;;4935815;29;20032;-91
2022/09/20 11:43:45;;;;;;;2.35;1.40;;;17.30;99.90;;;;;;4935322;29;20032;-88
2022/09/20 11:46:22;;;;;;;10.13;1.67;;;17.30;99.90;;;;;;4935453;29;20020;-90
2022/09/20 11:48:48;;;;;;;4.50;1.50;;;;;;;;;;4936317;29;20040;-90
2022/09/20 11:51:30;;;;;;;2.08;1.40;;;17.30;99.90;;;;;;4936342;29;20027;-89
2022/09/20 11:53:56;;;;;;;2.97;1.80;;;;;;;;;;4934986;29;20884;-90
2022/09/20 11:56:31;;;;;;;1.92;1.60;;;17.50;99.90;;;;;;4934434;29;20086;-90
2022/09/20 11:59:02;;;;;;;4.65;1.75;;;17.50;99.90;;;;;;4935406;29;20028;-91
2022/09/20 12:01:41;;;;;;;2.13;1.92;;;17.60;99.90;;;;;;4935441;29;20024;-90
2022/09/20 12:04:11;;;;;;;2.67;1.80;;;17.60;99.90;;;;;;4936822;29;20024;-89
2022/09/20 12:06:41;;;;;;;3.20;1.90;;;17.60;99.90;;;;;;4936009;29;20024;-88
2022/09/20 12:09:32;;;;;;;6.70;2.20;;;17.80;99.90;;;;;;4934792;29;20027;-89
2022/09/20 12:12:12;;;;;;;5.22;2.05;;;17.80;99.90;;;;;;4934433;29;20040;-89
2022/09/20 12:14:38;;;;;;;3.90;2.10;;;;;;;;;;4935218;29;20036;-92
2022/09/20 12:17:07;;;;;;;4.63;2.63;;;;;;;;;;4935626;29;20031;-92
2022/09/20 12:19:33;;;;;;;4.68;2.28;;;;;;;;;;4936680;29;20034;-91
2022/09/20 12:21:59;;;;;;;6.25;2.25;;;;;;;;;;4934593;29;20058;-91
2022/09/20 12:24:27;;;;;;;3.53;2.17;;;18.20;99.90;;;;;;4935887;29;20483;-91
2022/09/20 12:26:59;;;;;;;6.07;2.53;;;18.30;99.90;;;;;;4933496;29;20470;-92
2022/09/20 12:29:30;;;;;;;6.20;2.33;;;18.90;99.90;;;;;;4934522;29;20062;-90
2022/09/20 12:32:00;;;;;;;4.20;2.45;;;18.50;99.90;;;;;;4934587;29;20039;-90
2022/09/20 12:34:27;;;;;;;4.25;2.08;;;17.50;99.90;;;;;;4934485;29;20038;-90
2022/09/20 12:36:59;;;;;;;5.57;2.60;;;18.60;99.90;;;;;;4935508;29;20027;-92
2022/09/20 12:39:33;;;;;;;6.00;2.05;;;18.70;99.90;;;;;;4933628;29;20036;-91
2022/09/20 12:42:11;;;;;;;2.53;2.03;;;18.90;99.90;;;;;;4934671;29;20503;-91
2022/09/20 12:44:48;;;;;;;12.07;2.40;;;19.10;99.90;;;;;;4947168;29;20008;-89
2022/09/20 12:47:29;;;;;;;4.05;2.38;;;18.90;99.90;;;;;;4950661;29;20087;-92
2022/09/20 12:53:02;;;;;;;5.20;2.88;;;;;;;;;;4942648;29;20051;-89
2022/09/20 12:55:32;;;;;;;4.90;2.50;;;18.60;99.90;;;;;;4937744;29;20162;-90
2022/09/20 12:58:13;;;;;;;3.40;2.38;;;18.90;99.90;;;;;;4936408;29;20054;-89
2022/09/20 13:01:03;;;;;;;3.28;2.22;;;19.00;99.90;;;;;;4936370;29;20027;-92
2022/09/20 13:03:39;;;;;;;10.93;2.40;;;19.20;99.90;;;;;;4929749;29;20024;-91
2022/09/20 13:06:10;;;;;;;3.45;2.38;;;;;;;;;;4915974;29;20572;-90
2022/09/20 13:08:47;;;;;;;5.07;2.83;;;19.20;99.90;;;;;;4921129;29;20024;-92
2022/09/20 13:11:40;;;;;;;3.40;2.20;;;19.20;99.90;;;;;;4935830;29;20110;-93
2022/09/20 13:14:06;;;;;;;5.90;3.00;;;;;;;;;;4937482;29;20395;-92
2022/09/20 13:16:56;;;;;;;3.00;2.35;;;18.70;99.90;;;;;;4938731;29;20038;-91
2022/09/20 13:19:46;;;;;;;5.70;2.40;;;18.70;99.90;;;;;;4937734;29;20494;-90
2022/09/20 13:22:36;;;;;;;3.08;2.30;;;18.70;99.90;;;;;;4937803;29;20035;-93
2022/09/20 13:25:06;;;;;;;5.82;2.40;;;18.60;99.90;;;;;;4936470;29;20140;-90
2022/09/20 13:27:33;;;;;;;6.68;2.60;;;18.80;99.90;;;;;;4934808;29;20118;-90
2022/09/20 13:30:19;;;;;;;4.43;3.08;;;20.10;99.90;;;;;;4934651;29;20032;-91
2022/09/20 13:32:47;;;;;;;6.22;2.80;;;18.80;99.90;;;;;;4935626;29;20488;-90
2022/09/20 13:35:15;;;;;;;7.90;2.65;;;18.80;99.90;;;;;;4935774;29;20020;-93
2022/09/20 13:37:47;;;;;;;3.80;2.72;;;18.80;99.90;;;;;;4935028;29;20032;-91
2022/09/20 13:40:22;;;;;;;5.07;2.83;;;18.70;99.90;;;;;;4936501;29;20031;-89
2022/09/20 13:42:50;;;;;;;7.88;2.90;;;18.80;99.90;;;;;;4935302;29;20032;-92
2022/09/20 13:45:18;;;;;;;7.50;2.65;;;18.60;99.90;;;;;;4935428;29;20110;-90
2022/09/20 13:47:49;;;;;;;4.25;2.80;;;18.50;99.90;;;;;;4936881;29;20024;-92
2022/09/20 13:50:41;;;;;;;7.57;3.33;;;18.60;99.90;;;;;;4935083;29;20055;-89
2022/09/20 13:53:17;;;;;;;4.43;2.83;;;18.60;99.90;;;;;;4931758;29;20051;-91
2022/09/20 13:55:44;;;;;;;8.68;2.90;;;18.60;99.90;;;;;;4934945;29;20054;-87
2022/09/20 13:58:32;;;;;;;6.38;3.17;;;18.50;99.90;;;;;;4934890;29;20079;-88
2022/09/20 14:01:04;;;;;;;9.80;3.28;;;18.50;99.90;;;;;;4935003;29;20028;-89
2022/09/20 14:03:33;;;;;;;6.57;2.88;;;18.80;99.90;;;;;;4935107;29;20032;-91
2022/09/20 14:06:04;;;;;;;7.20;3.20;;;18.70;99.90;;;;;;4937902;29;20027;-91
2022/09/20 14:08:30;;;;;;;4.68;2.67;;;;;;;;;;4930374;29;20048;-90
2022/09/20 14:11:16;;;;;;;7.72;2.50;;;18.60;99.90;;;;;;4935074;29;20476;-92
2022/09/20 14:13:46;;;;;;;5.63;3.05;;;18.80;99.90;;;;;;4935012;29;20044;-91
2022/09/20 14:16:12;;;;;;;5.07;3.17;;;;;;;;;;4935583;29;20020;-93
2022/09/20 14:18:40;;;;;;;4.60;3.10;;;18.70;99.90;;;;;;4933709;29;20055;-93